| time (UTC) | temp F | wind direction | speed knots | gust knots | rain 1hr in | rain 24hr in | rain mn in | humidity % | barometer mb |
| 20260504204655 | 77 | 180 | 4.3 | 7.0 | 0.00 | 0.00 | 0.00 | 39 | 1015.1 |
| 20260504204153 | 76 | 107 | 0.9 | 2.6 | 0.00 | 0.00 | 0.00 | 38 | 1014.7 |
| 20260504203651 | 77 | 192 | 0.9 | 5.2 | 0.00 | 0.00 | 0.00 | 39 | 1014.9 |
| 20260504203148 | 75 | 149 | 5.2 | 7.0 | 0.00 | 0.00 | 0.00 | 40 | 1015.0 |
| 20260504202643 | 76 | 94 | 1.7 | 6.1 | 0.00 | 0.00 | 0.00 | 42 | 1014.9 |
| 20260504202140 | 77 | 155 | 6.1 | 7.0 | 0.00 | 0.00 | 0.00 | 39 | 1015.1 |
| 20260504201637 | 76 | 114 | 0.9 | 2.6 | 0.00 | 0.00 | 0.00 | 39 | 1015.0 |
| 20260504201135 | 76 | 295 | 0.9 | 2.6 | 0.00 | 0.00 | 0.00 | 38 | 1015.1 |
| 20260504200632 | 77 | 108 | 1.7 | 6.1 | 0.00 | 0.00 | 0.00 | 37 | 1015.2 |
| 20260504200128 | 76 | 177 | 2.6 | 4.3 | 0.00 | 0.00 | 0.00 | 36 | 1015.2 |
| 20260504195624 | 77 | 108 | 1.7 | 4.3 | 0.00 | 0.00 | 0.00 | 37 | 1015.2 |
| 20260504195121 | 76 | 171 | 3.5 | 5.2 | 0.00 | 0.00 | 0.00 | 39 | 1015.3 |
| 20260504194618 | 76 | 175 | 2.6 | 4.3 | 0.00 | 0.00 | 0.00 | 38 | 1015.4 |
| 20260504194113 | 76 | 121 | 2.6 | 4.3 | 0.00 | 0.00 | 0.00 | 39 | 1015.7 |
| 20260504193610 | 76 | 83 | 0.9 | 2.6 | 0.00 | 0.00 | 0.00 | 37 | 1015.6 |
| 20260504193109 | 76 | 85 | 0.9 | 1.7 | 0.00 | 0.00 | 0.00 | 36 | 1015.6 |
| 20260504192606 | 76 | 290 | 0.9 | 2.6 | 0.00 | 0.00 | 0.00 | 36 | 1015.6 |
| 20260504192104 | 76 | 94 | 1.7 | 4.3 | 0.00 | 0.00 | 0.00 | 37 | 1015.8 |
| 20260504191602 | 76 | 21 | 0.9 | 4.3 | 0.00 | 0.00 | 0.00 | 34 | 1015.9 |
| 20260504191058 | 76 | 166 | 1.7 | 1.7 | 0.00 | 0.00 | 0.00 | 37 | 1016.2 |
| 20260504190554 | 76 | 101 | 0.9 | 5.2 | 0.00 | 0.00 | 0.00 | 38 | 1016.0 |
| 20260504190050 | 75 | 219 | 1.7 | 5.2 | 0.00 | 0.00 | 0.00 | 37 | 1016.0 |
| 20260504185548 | 75 | 67 | 3.5 | 5.2 | 0.00 | 0.00 | 0.00 | 40 | 1016.1 |
| 20260504185044 | 76 | 166 | 3.5 | 5.2 | 0.00 | 0.00 | 0.00 | 45 | 1016.2 |
| 20260504184539 | 75 | 108 | 1.7 | 2.6 | 0.00 | 0.00 | 0.00 | 43 | 1016.3 |
| 20260504184035 | 74 | 71 | 0.0 | 2.6 | 0.00 | 0.00 | 0.00 | 43 | 1016.2 |
| 20260504183532 | 76 | 131 | 1.7 | 2.6 | 0.00 | 0.00 | 0.00 | 42 | 1016.1 |
| 20260504183031 | 76 | 29 | 0.9 | 0.9 | 0.00 | 0.00 | 0.00 | 41 | 1016.3 |
| 20260504182527 | 75 | 207 | 2.6 | 4.3 | 0.00 | 0.00 | 0.00 | 41 | 1016.5 |
| 20260504182025 | 76 | 78 | 0.9 | 2.6 | 0.00 | 0.00 | 0.00 | 43 | 1016.6 |
| 20260504181521 | 76 | 35 | 0.9 | 2.6 | 0.00 | 0.00 | 0.00 | 41 | 1016.7 |
| 20260504181020 | 75 | 38 | 0.9 | 1.7 | 0.00 | 0.00 | 0.00 | 44 | 1016.6 |
| 20260504180518 | 75 | 29 | 0.9 | 1.7 | 0.00 | 0.00 | 0.00 | 39 | 1016.8 |
| 20260504180017 | 74 | 156 | 1.7 | 2.6 | 0.00 | 0.00 | 0.00 | 43 | 1017.0 |
| 20260504175513 | 74 | 245 | 0.0 | 1.7 | 0.00 | 0.00 | 0.00 | 43 | 1017.0 |
| 20260504175011 | 75 | 198 | 3.5 | 6.1 | 0.00 | 0.00 | 0.00 | 41 | 1017.0 |
| 20260504174508 | 74 | 180 | 1.7 | 4.3 | 0.00 | 0.00 | 0.00 | 43 | 1017.0 |
| 20260504174005 | 75 | 137 | 0.9 | 2.6 | 0.00 | 0.00 | 0.00 | 42 | 1017.0 |
| 20260504173502 | 75 | 348 | 0.9 | 1.7 | 0.00 | 0.00 | 0.00 | 45 | 1017.2 |
| 20260504172959 | 75 | 7 | 0.9 | 2.6 | 0.00 | 0.00 | 0.00 | 46 | 1017.2 |
| 20260504172455 | 74 | 349 | 3.5 | 5.2 | 0.00 | 0.00 | 0.00 | 45 | 1017.3 |
| 20260504171952 | 74 | 300 | 3.5 | 4.3 | 0.00 | 0.00 | 0.00 | 43 | 1017.3 |
| 20260504171449 | 74 | 47 | 0.9 | 4.3 | 0.00 | 0.00 | 0.00 | 44 | 1017.4 |
| 20260504170945 | 75 | 72 | 0.0 | 1.7 | 0.00 | 0.00 | 0.00 | 43 | 1017.6 |
| 20260504170442 | 74 | 14 | 1.7 | 2.6 | 0.00 | 0.00 | 0.00 | 45 | 1017.6 |
| 20260504160402 | 71 | 75 | 0.9 | 2.6 | 0.00 | 0.00 | 0.00 | 47 | 1018.3 |
| 20260504150826 | 69 | 191 | 3.5 | 5.2 | 0.00 | 0.00 | 0.00 | 53 | 1018.8 |
| 20260504150322 | 69 | 180 | 0.9 | 5.2 | 0.00 | 0.00 | 0.00 | 52 | 1018.5 |
| 20260504141252 | 64 | 266 | 2.6 | 4.3 | 0.00 | 0.00 | 0.00 | 58 | 1019.0 |
| 20260504140749 | 65 | 211 | 0.9 | 2.6 | 0.00 | 0.00 | 0.00 | 58 | 1019.1 |
| 20260504140244 | 64 | 217 | 2.6 | 2.6 | 0.00 | 0.00 | 0.00 | 58 | 1019.4 |
| 20260504130713 | 58 | 19 | 0.0 | 0.9 | 0.00 | 0.00 | 0.00 | 73 | 1019.2 |
| 20260504130209 | 57 | 9 | 0.0 | 0.9 | 0.00 | 0.00 | 0.00 | 75 | 1019.1 |
| 20260504120133 | 42 | 70 | 0.0 | 0.0 | 0.00 | 0.00 | 0.00 | 99 | 1018.7 |
| 20260504110600 | 40 | 68 | 0.0 | 0.0 | 0.00 | 0.00 | 0.00 | 99 | 1018.4 |
| 20260504100522 | 41 | 68 | 0.0 | 0.0 | 0.00 | 0.00 | 0.00 | 99 | 1018.1 |
| 20260504081916 | 42 | 69 | 0.0 | 0.9 | 0.00 | 0.00 | 0.00 | 99 | 1018.1 |
| 20260504081413 | 42 | 65 | 0.0 | 0.0 | 0.00 | 0.00 | 0.00 | 99 | 1018.1 |
| 20260504080908 | 42 | 63 | 0.0 | 0.9 | 0.00 | 0.00 | 0.00 | 99 | 1018.1 |
| 20260504080406 | 42 | 61 | 0.0 | 0.0 | 0.00 | 0.00 | 0.00 | 99 | 1018.1 |
| 20260504070333 | 42 | 75 | 0.0 | 0.9 | 0.00 | 0.00 | 0.00 | 99 | 1018.2 |
| 20260504050721 | 45 | 26 | 0.0 | 0.9 | 0.00 | 0.00 | 0.00 | 97 | 1019.2 |
| 20260504050218 | 45 | 26 | 0.0 | 0.9 | 0.00 | 0.00 | 0.00 | 98 | 1018.9 |
| 20260504045715 | 45 | 43 | 0.0 | 0.0 | 0.00 | 0.00 | 0.00 | 98 | 1019.0 |
| 20260504045215 | 44 | 81 | 0.0 | 0.0 | 0.00 | 0.00 | 0.00 | 98 | 1019.1 |
| 20260504044714 | 44 | 75 | 0.0 | 0.0 | 0.00 | 0.00 | 0.00 | 97 | 1019.2 |
| 20260504044211 | 44 | 75 | 0.0 | 0.0 | 0.00 | 0.00 | 0.00 | 97 | 1019.3 |
| 20260504043708 | 45 | 75 | 0.0 | 0.0 | 0.00 | 0.00 | 0.00 | 97 | 1019.1 |
| 20260504043204 | 45 | 75 | 0.0 | 0.0 | 0.00 | 0.00 | 0.00 | 97 | 1019.0 |
| 20260504042702 | 45 | 75 | 0.0 | 0.0 | 0.00 | 0.00 | 0.00 | 97 | 1019.2 |
| 20260504042158 | 45 | 75 | 0.0 | 0.0 | 0.00 | 0.00 | 0.00 | 96 | 1019.2 |
| 20260504041654 | 45 | 75 | 0.0 | 0.9 | 0.00 | 0.00 | 0.00 | 96 | 1019.3 |
| 20260504041150 | 46 | 141 | 1.7 | 1.7 | 0.00 | 0.00 | 0.00 | 95 | 1019.4 |
| 20260504040647 | 46 | 43 | 0.0 | 0.0 | 0.00 | 0.00 | 0.00 | 95 | 1019.3 |
| 20260504040144 | 47 | 42 | 0.0 | 0.0 | 0.00 | 0.00 | 0.00 | 94 | 1019.6 |
| 20260504035641 | 47 | 42 | 0.0 | 0.0 | 0.00 | 0.00 | 0.00 | 94 | 1019.6 |
| 20260504035138 | 47 | 43 | 0.0 | 0.9 | 0.00 | 0.00 | 0.00 | 94 | 1019.6 |
| 20260504034635 | 47 | 45 | 0.0 | 0.9 | 0.00 | 0.00 | 0.00 | 93 | 1019.7 |
| 20260504034132 | 47 | 46 | 0.0 | 0.9 | 0.00 | 0.00 | 0.00 | 93 | 1019.6 |
| 20260504033630 | 47 | 48 | 0.0 | 0.0 | 0.00 | 0.00 | 0.00 | 92 | 1019.5 |
| 20260504033127 | 47 | 48 | 0.0 | 0.9 | 0.00 | 0.00 | 0.00 | 93 | 1019.3 |
| 20260504032624 | 47 | 73 | 0.0 | 0.9 | 0.00 | 0.00 | 0.00 | 93 | 1019.5 |
| 20260504032121 | 47 | 74 | 0.9 | 0.9 | 0.00 | 0.00 | 0.00 | 92 | 1019.2 |
| 20260504031618 | 48 | 73 | 0.0 | 0.0 | 0.00 | 0.00 | 0.00 | 91 | 1019.4 |
| 20260504031114 | 48 | 73 | 0.0 | 0.0 | 0.00 | 0.00 | 0.00 | 89 | 1019.3 |
| 20260504030611 | 48 | 73 | 0.0 | 0.0 | 0.00 | 0.00 | 0.00 | 88 | 1019.2 |
| 20260504030108 | 48 | 73 | 0.0 | 0.0 | 0.00 | 0.00 | 0.00 | 88 | 1019.3 |
| 20260504025605 | 48 | 73 | 0.0 | 0.9 | 0.00 | 0.00 | 0.00 | 91 | 1019.5 |
| 20260504025101 | 48 | 74 | 0.0 | 0.9 | 0.00 | 0.00 | 0.00 | 91 | 1019.3 |
| 20260504024559 | 49 | 73 | 0.0 | 0.9 | 0.00 | 0.00 | 0.00 | 90 | 1019.4 |
| 20260504024055 | 49 | 73 | 0.9 | 0.9 | 0.00 | 0.00 | 0.00 | 89 | 1019.3 |
| 20260504023552 | 49 | 38 | 0.0 | 0.0 | 0.00 | 0.00 | 0.00 | 87 | 1019.3 |
| 20260504023048 | 49 | 38 | 0.0 | 0.0 | 0.00 | 0.00 | 0.00 | 88 | 1019.2 |
| 20260504022544 | 49 | 79 | 0.0 | 0.9 | 0.00 | 0.00 | 0.00 | 89 | 1019.2 |
| 20260504022040 | 49 | 80 | 0.0 | 0.0 | 0.00 | 0.00 | 0.00 | 89 | 1019.0 |
| 20260504021538 | 49 | 131 | 0.9 | 1.7 | 0.00 | 0.00 | 0.00 | 89 | 1018.7 |
| 20260504021035 | 50 | 105 | 0.9 | 0.9 | 0.00 | 0.00 | 0.00 | 87 | 1018.7 |
| 20260504020532 | 51 | 302 | 0.9 | 0.9 | 0.00 | 0.00 | 0.00 | 84 | 1019.0 |
| 20260504020028 | 51 | 309 | 0.0 | 0.0 | 0.00 | 0.00 | 0.00 | 82 | 1018.9 |
| 20260504015524 | 52 | 309 | 0.0 | 0.9 | 0.00 | 0.00 | 0.00 | 81 | 1019.0 |
| 20260504015020 | 52 | 309 | 0.0 | 0.9 | 0.00 | 0.00 | 0.00 | 79 | 1018.8 |
| 20260504014517 | 52 | 309 | 0.0 | 0.0 | 0.00 | 0.00 | 0.00 | 78 | 1018.6 |
| 20260504014014 | 52 | 309 | 0.0 | 0.0 | 0.00 | 0.00 | 0.00 | 80 | 1018.6 |
| 20260504013512 | 53 | 309 | 0.0 | 0.0 | 0.00 | 0.00 | 0.00 | 79 | 1018.6 |
| 20260504013009 | 53 | 308 | 0.9 | 0.9 | 0.00 | 0.00 | 0.00 | 74 | 1018.6 |
| 20260504012506 | 53 | 308 | 0.0 | 0.9 | 0.00 | 0.00 | 0.00 | 76 | 1018.5 |
| 20260504012004 | 53 | 308 | 0.0 | 0.0 | 0.00 | 0.00 | 0.00 | 76 | 1018.5 |
| 20260504011500 | 54 | 308 | 0.0 | 0.9 | 0.00 | 0.00 | 0.00 | 74 | 1018.3 |
| 20260504010955 | 55 | 309 | 0.0 | 0.0 | 0.00 | 0.00 | 0.00 | 71 | 1018.3 |
| 20260504010452 | 55 | 309 | 0.0 | 0.9 | 0.00 | 0.00 | 0.00 | 67 | 1018.3 |
| 20260504005948 | 56 | 309 | 0.0 | 0.9 | 0.00 | 0.00 | 0.00 | 67 | 1018.4 |
| 20260504005445 | 57 | 309 | 0.0 | 0.9 | 0.00 | 0.00 | 0.00 | 66 | 1018.4 |
| 20260504004943 | 57 | 308 | 0.9 | 0.9 | 0.00 | 0.00 | 0.00 | 62 | 1018.2 |
| 20260504004440 | 58 | 308 | 0.9 | 0.9 | 0.00 | 0.00 | 0.00 | 63 | 1018.1 |
| 20260504003937 | 59 | 308 | 0.9 | 0.9 | 0.00 | 0.00 | 0.00 | 61 | 1018.2 |
| 20260504003433 | 60 | 308 | 0.0 | 0.0 | 0.00 | 0.00 | 0.00 | 56 | 1018.0 |
| 20260504002930 | 61 | 307 | 0.0 | 0.0 | 0.00 | 0.00 | 0.00 | 51 | 1017.9 |
| 20260504002427 | 62 | 267 | 0.9 | 1.7 | 0.00 | 0.00 | 0.00 | 48 | 1017.9 |
| 20260504001924 | 62 | 323 | 0.0 | 0.9 | 0.00 | 0.00 | 0.00 | 49 | 1018.0 |
| 20260504001422 | 62 | 321 | 0.9 | 0.9 | 0.00 | 0.00 | 0.00 | 48 | 1018.0 |
| 20260504000918 | 63 | 301 | 0.9 | 1.7 | 0.00 | 0.00 | 0.00 | 48 | 1017.9 |
| 20260504000416 | 63 | 358 | 0.0 | 0.9 | 0.00 | 0.00 | 0.00 | 47 | 1018.1 |
| 20260503235913 | 63 | 294 | 0.9 | 1.7 | 0.00 | 0.00 | 0.00 | 46 | 1018.1 |
| 20260503235411 | 64 | 291 | 0.9 | 1.7 | 0.00 | 0.00 | 0.00 | 45 | 1017.9 |
| 20260503234908 | 65 | 335 | 0.9 | 1.7 | 0.00 | 0.00 | 0.00 | 43 | 1018.2 |
| 20260503234405 | 65 | 14 | 0.9 | 0.9 | 0.00 | 0.00 | 0.00 | 43 | 1017.9 |
| 20260503233903 | 65 | 293 | 0.9 | 1.7 | 0.00 | 0.00 | 0.00 | 42 | 1018.0 |
| 20260503233359 | 65 | 326 | 0.9 | 0.9 | 0.00 | 0.00 | 0.00 | 43 | 1018.0 |
| 20260503232855 | 65 | 356 | 0.9 | 2.6 | 0.00 | 0.00 | 0.00 | 45 | 1018.1 |
| 20260503232353 | 66 | 14 | 0.9 | 2.6 | 0.00 | 0.00 | 0.00 | 45 | 1018.0 |
| 20260503231851 | 66 | 23 | 0.9 | 4.3 | 0.00 | 0.00 | 0.00 | 42 | 1018.1 |
| 20260503231347 | 66 | 301 | 2.6 | 7.0 | 0.00 | 0.00 | 0.00 | 42 | 1017.9 |
| 20260503230844 | 66 | 30 | 1.7 | 4.3 | 0.00 | 0.00 | 0.00 | 45 | 1018.1 |
| 20260503230340 | 67 | 226 | 0.9 | 1.7 | 0.00 | 0.00 | 0.00 | 43 | 1018.3 |
| 20260503225839 | 66 | 303 | 1.7 | 5.2 | 0.00 | 0.00 | 0.00 | 40 | 1018.2 |
| 20260503225334 | 67 | 293 | 2.6 | 5.2 | 0.00 | 0.00 | 0.00 | 40 | 1018.0 |
| 20260503224830 | 67 | 6 | 2.6 | 4.3 | 0.00 | 0.00 | 0.00 | 40 | 1017.9 |
| 20260503224328 | 67 | 20 | 0.9 | 5.2 | 0.00 | 0.00 | 0.00 | 42 | 1018.1 |
| 20260503223826 | 68 | 307 | 1.7 | 1.7 | 0.00 | 0.00 | 0.00 | 41 | 1018.1 |
| 20260503223323 | 68 | 111 | 1.7 | 2.6 | 0.00 | 0.00 | 0.00 | 40 | 1018.1 |
| 20260503222818 | 69 | 334 | 0.9 | 1.7 | 0.00 | 0.00 | 0.00 | 40 | 1018.0 |
| 20260503222317 | 69 | 285 | 2.6 | 5.2 | 0.00 | 0.00 | 0.00 | 40 | 1018.2 |
| 20260503221815 | 69 | 269 | 2.6 | 4.3 | 0.00 | 0.00 | 0.00 | 40 | 1018.3 |
| 20260503221313 | 68 | 26 | 2.6 | 4.3 | 0.00 | 0.00 | 0.00 | 41 | 1018.3 |
| 20260503220809 | 69 | 299 | 2.6 | 2.6 | 0.00 | 0.00 | 0.00 | 37 | 1018.1 |
| 20260503220306 | 68 | 23 | 0.9 | 4.3 | 0.00 | 0.00 | 0.00 | 40 | 1018.4 |
| 20260503215803 | 68 | 12 | 0.9 | 5.2 | 0.00 | 0.00 | 0.00 | 40 | 1018.4 |
| 20260503215259 | 69 | 20 | 0.9 | 1.7 | 0.00 | 0.00 | 0.00 | 38 | 1018.2 |
| 20260503214758 | 69 | 39 | 0.9 | 1.7 | 0.00 | 0.00 | 0.00 | 40 | 1018.4 |
| 20260503214254 | 68 | 249 | 1.7 | 5.2 | 0.00 | 0.00 | 0.00 | 39 | 1018.5 |
| 20260503213752 | 68 | 235 | 3.5 | 7.0 | 0.00 | 0.00 | 0.00 | 36 | 1018.3 |
| 20260503213249 | 68 | 311 | 3.5 | 5.2 | 0.00 | 0.00 | 0.00 | 37 | 1018.4 |
| 20260503212746 | 68 | 33 | 2.6 | 6.1 | 0.00 | 0.00 | 0.00 | 39 | 1018.5 |
| 20260503212244 | 68 | 332 | 2.6 | 4.3 | 0.00 | 0.00 | 0.00 | 42 | 1018.3 |
| 20260503211741 | 68 | 267 | 3.5 | 5.2 | 0.00 | 0.00 | 0.00 | 37 | 1018.7 |
| 20260503211237 | 68 | 43 | 1.7 | 6.1 | 0.00 | 0.00 | 0.00 | 38 | 1018.8 |
| 20260503210732 | 69 | 259 | 3.5 | 5.2 | 0.00 | 0.00 | 0.00 | 38 | 1018.8 |
| 20260503210230 | 69 | 321 | 2.6 | 4.3 | 0.00 | 0.00 | 0.00 | 38 | 1018.7 |
| 20260503205726 | 68 | 275 | 3.5 | 5.2 | 0.00 | 0.00 | 0.00 | 38 | 1018.9 |
| 20260503205222 | 68 | 327 | 1.7 | 4.3 | 0.00 | 0.00 | 0.00 | 40 | 1018.8 |